Time;durP1;ratioP1;P1;durP2;ratioP2;P2;SDS_P1;SDS_P2;PMS_P1;PMS_P2;Temp;Humidity;BMP_temperature;BMP_pressure;BME280_temperature;BME280_humidity;BME280_pressure;Samples;Min_cycle;Max_cycle;Signal;HPM_P1;HPM_P2
2021/03/27 00:01:43;;;;;;;2.67;2.40;;;22.50;49.70;;;;;;4997892;28;20470;-67
2021/03/27 00:04:21;;;;;;;3.47;2.50;;;22.50;49.70;;;;;;4997244;28;20429;-66
2021/03/27 00:06:55;;;;;;;3.20;2.30;;;22.50;49.70;;;;;;4992714;28;20471;-66
2021/03/27 00:09:49;;;;;;;3.77;2.73;;;22.40;49.60;;;;;;4977636;28;20424;-67
2021/03/27 00:12:32;;;;;;;3.17;2.57;;;22.50;49.70;;;;;;4992571;28;20540;-65
2021/03/27 00:15:38;;;;;;;2.70;2.10;;;22.40;49.60;;;;;;4983088;28;20423;-67
2021/03/27 00:18:22;;;;;;;2.90;2.20;;;22.40;49.60;;;;;;4995331;28;20466;-67
2021/03/27 00:20:58;;;;;;;2.20;2.00;;;22.40;49.60;;;;;;4997311;28;20867;-67
2021/03/27 00:23:31;;;;;;;3.00;2.10;;;22.40;49.70;;;;;;4996864;28;20422;-67
2021/03/27 00:26:02;;;;;;;3.87;2.40;;;22.40;49.70;;;;;;4996645;28;20413;-67
2021/03/27 00:28:34;;;;;;;2.23;2.00;;;22.40;49.70;;;;;;4996875;28;20412;-67
2021/03/27 00:31:07;;;;;;;3.00;2.03;;;22.40;49.60;;;;;;4997093;28;20930;-67
2021/03/27 00:33:35;;;;;;;2.83;2.43;;;22.50;49.80;;;;;;4996731;28;20460;-67
2021/03/27 00:36:06;;;;;;;2.70;2.30;;;22.40;49.60;;;;;;4996413;28;20439;-66
2021/03/27 00:38:48;;;;;;;2.53;2.13;;;22.40;49.60;;;;;;4995334;28;20455;-67
2021/03/27 00:41:23;;;;;;;3.10;2.40;;;22.40;49.60;;;;;;4996616;28;20392;-67
2021/03/27 00:43:56;;;;;;;2.30;1.93;;;22.40;49.60;;;;;;4996559;28;20514;-67
2021/03/27 00:46:23;;;;;;;4.33;2.20;;;22.40;49.70;;;;;;4996221;28;20416;-67
2021/03/27 00:48:58;;;;;;;2.53;2.30;;;22.40;49.60;;;;;;4995064;28;20493;-66
2021/03/27 00:51:34;;;;;;;3.73;2.37;;;22.40;49.60;;;;;;4996656;28;20392;-67
2021/03/27 00:54:06;;;;;;;3.27;2.67;;;22.40;49.60;;;;;;4994903;28;20563;-67
2021/03/27 00:56:47;;;;;;;2.40;2.13;;;22.50;49.80;;;;;;4996003;28;20436;-67
2021/03/27 00:59:22;;;;;;;3.07;2.20;;;22.40;49.60;;;;;;4996535;28;20529;-67
2021/03/27 01:01:51;;;;;;;2.57;2.20;;;22.40;49.70;;;;;;4996446;28;20403;-66
2021/03/27 01:04:18;;;;;;;2.73;2.23;;;22.40;49.70;;;;;;4996257;28;20404;-67
2021/03/27 01:06:54;;;;;;;3.30;2.37;;;22.40;50.30;;;;;;4994395;28;20425;-66
2021/03/27 01:09:25;;;;;;;2.80;2.30;;;22.40;49.70;;;;;;4996116;28;20388;-67
2021/03/27 01:12:04;;;;;;;3.20;2.30;;;22.40;50.20;;;;;;4996523;28;20393;-67
2021/03/27 01:14:39;;;;;;;2.60;2.23;;;22.40;49.70;;;;;;4995705;28;20511;-67
2021/03/27 01:17:07;;;;;;;2.63;2.17;;;22.40;49.70;;;;;;4995971;28;20899;-67
2021/03/27 01:19:39;;;;;;;2.70;2.10;;;22.40;49.70;;;;;;4996028;28;20514;-66
2021/03/27 01:22:11;;;;;;;2.57;2.30;;;22.40;49.70;;;;;;4996110;28;20416;-67
2021/03/27 01:24:37;;;;;;;2.97;2.30;;;22.40;49.70;;;;;;4994272;28;20420;-67
2021/03/27 01:27:16;;;;;;;2.60;2.13;;;22.40;49.70;;;;;;4995754;28;20408;-67
2021/03/27 01:30:14;;;;;;;2.83;2.13;;;22.40;49.70;;;;;;4995773;28;20885;-67
2021/03/27 01:33:02;;;;;;;2.87;2.30;;;22.40;49.70;;;;;;5011015;28;20955;-67
2021/03/27 01:35:43;;;;;;;2.17;1.97;;;22.40;49.70;;;;;;4995410;28;20425;-67
2021/03/27 01:38:21;;;;;;;2.47;2.13;;;22.40;49.70;;;;;;4995330;28;20490;-67
2021/03/27 01:40:59;;;;;;;2.80;2.13;;;22.40;49.70;;;;;;4995656;28;20448;-66
2021/03/27 01:43:47;;;;;;;4.30;2.50;;;22.40;49.80;;;;;;4995517;28;20423;-67
2021/03/27 01:46:44;;;;;;;3.03;2.20;;;22.40;49.80;;;;;;4994901;28;20536;-67
2021/03/27 01:49:47;;;;;;;2.60;2.10;;;22.40;49.80;;;;;;4995426;28;20435;-67
2021/03/27 01:52:40;;;;;;;2.47;2.10;;;22.40;49.80;;;;;;4994300;28;20439;-67
2021/03/27 01:55:20;;;;;;;2.57;2.00;;;22.40;49.80;;;;;;4995072;28;20423;-67
2021/03/27 01:58:09;;;;;;;2.07;1.87;;;22.40;49.80;;;;;;4995617;28;20452;-66
2021/03/27 02:01:09;;;;;;;2.30;2.10;;;22.30;49.70;;;;;;4995412;28;20408;-67
2021/03/27 02:03:40;;;;;;;2.87;2.23;;;22.30;49.80;;;;;;4990552;28;20804;-67
2021/03/27 02:06:31;;;;;;;2.10;1.90;;;22.30;49.80;;;;;;4994319;28;20460;-67
2021/03/27 02:09:11;;;;;;;2.73;2.10;;;22.30;49.80;;;;;;4995277;28;20393;-66
2021/03/27 02:11:40;;;;;;;4.53;1.83;;;22.40;49.80;;;;;;4995046;28;20920;-67
2021/03/27 02:14:14;;;;;;;3.13;2.10;;;22.30;49.80;;;;;;4994794;28;20515;-67
2021/03/27 02:16:59;;;;;;;2.70;2.10;;;22.30;49.80;;;;;;4994626;28;20443;-67
2021/03/27 02:19:58;;;;;;;2.83;2.20;;;22.40;49.80;;;;;;4994730;28;20539;-67
2021/03/27 02:22:41;;;;;;;3.00;2.47;;;22.40;49.80;;;;;;4994945;28;20848;-67
2021/03/27 02:25:12;;;;;;;2.50;2.20;;;22.30;49.80;;;;;;4994363;28;20423;-66
2021/03/27 02:28:01;;;;;;;3.57;1.77;;;22.30;49.80;;;;;;4994637;28;20496;-67
2021/03/27 02:30:34;;;;;;;3.80;2.40;;;22.30;49.80;;;;;;4994638;28;20426;-67
2021/03/27 02:33:21;;;;;;;2.17;1.97;;;22.30;49.80;;;;;;4994509;28;20494;-66
2021/03/27 02:36:14;;;;;;;3.40;2.50;;;22.30;49.70;;;;;;4984039;28;20574;-68
2021/03/27 02:38:45;;;;;;;3.13;2.57;;;22.30;49.70;;;;;;4994344;28;20479;-66
2021/03/27 02:41:30;;;;;;;2.70;2.23;;;22.30;49.80;;;;;;4994317;28;20415;-67
2021/03/27 02:44:27;;;;;;;2.50;2.30;;;22.30;49.70;;;;;;4994001;28;20448;-66
2021/03/27 02:47:03;;;;;;;2.50;2.30;;;22.30;49.70;;;;;;4992840;28;20831;-67
2021/03/27 02:49:34;;;;;;;2.07;1.73;;;22.30;49.80;;;;;;4994144;28;20818;-67
2021/03/27 02:52:06;;;;;;;2.67;2.10;;;22.30;49.70;;;;;;4994165;28;20401;-67
2021/03/27 02:54:51;;;;;;;2.43;2.20;;;22.30;49.80;;;;;;4993856;28;20515;-67
2021/03/27 02:57:24;;;;;;;2.60;2.17;;;22.30;49.70;;;;;;4992791;28;20482;-67
2021/03/27 03:00:05;;;;;;;2.50;2.07;;;22.40;49.80;;;;;;4994116;28;20443;-67
2021/03/27 03:03:00;;;;;;;2.93;2.40;;;22.40;49.80;;;;;;4994143;28;20439;-67
2021/03/27 03:05:47;;;;;;;2.03;1.83;;;22.30;49.70;;;;;;4993823;28;20448;-67
2021/03/27 03:08:23;;;;;;;2.03;1.83;;;22.30;49.70;;;;;;4993977;28;20395;-67
2021/03/27 03:11:13;;;;;;;2.97;2.30;;;22.30;49.80;;;;;;4993910;28;20471;-67
2021/03/27 03:13:48;;;;;;;2.27;1.90;;;22.30;49.80;;;;;;4993123;28;20455;-67
2021/03/27 03:16:25;;;;;;;1.83;1.67;;;22.30;49.80;;;;;;4994147;28;20399;-67
2021/03/27 03:19:08;;;;;;;2.10;1.90;;;22.30;49.80;;;;;;4992974;28;20447;-67
2021/03/27 03:22:14;;;;;;;2.07;1.80;;;22.30;49.80;;;;;;4992767;28;20475;-67
2021/03/27 03:24:43;;;;;;;1.93;1.73;;;22.30;49.80;;;;;;4993370;28;21015;-66
2021/03/27 03:27:37;;;;;;;2.10;1.90;;;22.30;49.80;;;;;;4992160;28;20424;-67
2021/03/27 03:30:38;;;;;;;2.10;1.90;;;22.30;49.80;;;;;;4993676;28;20911;-67
2021/03/27 03:33:22;;;;;;;2.30;1.93;;;22.30;49.80;;;;;;4993667;28;20460;-67
2021/03/27 03:36:07;;;;;;;2.30;1.80;;;22.30;49.80;;;;;;4989186;28;20491;-68
2021/03/27 03:39:03;;;;;;;2.53;1.70;;;22.30;49.80;;;;;;4974157;28;20460;-67
2021/03/27 03:41:43;;;;;;;2.40;1.90;;;22.30;49.80;;;;;;4974239;28;20385;-66
2021/03/27 03:44:20;;;;;;;2.10;1.90;;;22.20;49.80;;;;;;4981789;28;20527;-67
2021/03/27 03:46:57;;;;;;;2.20;2.00;;;22.20;49.80;;;;;;4992291;28;20408;-67
2021/03/27 03:49:39;;;;;;;1.70;1.60;;;22.30;49.90;;;;;;4993613;28;20455;-68
2021/03/27 03:52:23;;;;;;;4.37;2.50;;;22.30;49.90;;;;;;4993726;28;20750;-67
2021/03/27 03:55:13;;;;;;;2.20;1.97;;;22.20;49.80;;;;;;4993391;28;20424;-67
2021/03/27 03:57:57;;;;;;;1.90;1.70;;;22.30;49.90;;;;;;4993901;28;20790;-67
2021/03/27 04:00:46;;;;;;;2.17;1.97;;;22.30;49.90;;;;;;4993340;28;20417;-66
2021/03/27 04:03:30;;;;;;;2.27;1.93;;;22.30;49.80;;;;;;4990427;28;20444;-67
2021/03/27 04:06:10;;;;;;;2.70;1.90;;;22.20;49.80;;;;;;4993500;28;20407;-67
2021/03/27 04:08:43;;;;;;;3.50;2.40;;;22.20;49.80;;;;;;4993300;28;20861;-65
2021/03/27 04:11:37;;;;;;;2.40;1.90;;;22.20;49.80;;;;;;4993357;28;20866;-67
2021/03/27 04:14:27;;;;;;;2.17;1.90;;;22.30;49.80;;;;;;4993525;28;20439;-67
2021/03/27 04:17:20;;;;;;;2.47;2.07;;;22.30;49.90;;;;;;4993271;28;20831;-67
2021/03/27 04:20:17;;;;;;;2.07;1.87;;;22.20;49.80;;;;;;4991907;28;20446;-67
2021/03/27 04:22:48;;;;;;;2.13;1.70;;;22.20;49.80;;;;;;4974174;28;20528;-67
2021/03/27 04:25:18;;;;;;;2.67;2.10;;;22.30;49.90;;;;;;4993237;28;20385;-66
2021/03/27 04:28:00;;;;;;;2.70;2.03;;;22.20;49.80;;;;;;4991872;28;20448;-67
2021/03/27 04:30:30;;;;;;;1.70;1.60;;;22.30;49.80;;;;;;4994962;28;20432;-67
2021/03/27 04:33:16;;;;;;;2.07;1.90;;;22.30;49.80;;;;;;4994820;28;20526;-68
2021/03/27 04:35:50;;;;;;;2.53;1.90;;;22.30;49.80;;;;;;4976983;28;20421;-67
2021/03/27 04:38:35;;;;;;;2.23;1.90;;;22.20;49.80;;;;;;4977030;28;20499;-66
2021/03/27 04:41:26;;;;;;;2.17;1.93;;;22.30;49.90;;;;;;4981650;28;20424;-66
2021/03/27 04:43:59;;;;;;;1.50;1.27;;;22.30;49.80;;;;;;4995117;28;20436;-67
2021/03/27 04:46:51;;;;;;;2.80;2.23;;;22.20;49.80;;;;;;4994871;28;20448;-68
2021/03/27 04:49:27;;;;;;;2.27;2.07;;;22.30;49.80;;;;;;4996140;28;20448;-66
2021/03/27 04:52:17;;;;;;;1.70;1.60;;;22.20;49.80;;;;;;4996147;28;20427;-66
2021/03/27 04:54:50;;;;;;;2.23;2.00;;;22.20;49.80;;;;;;4996269;28;20420;-67
2021/03/27 04:57:31;;;;;;;3.10;2.10;;;22.30;49.90;;;;;;4995832;28;20439;-67
2021/03/27 05:00:21;;;;;;;2.10;1.90;;;22.30;49.90;;;;;;4996593;28;20404;-67
2021/03/27 05:03:00;;;;;;;4.00;1.97;;;22.30;49.90;;;;;;4996112;28;20425;-66
2021/03/27 05:05:28;;;;;;;2.43;2.10;;;22.20;49.80;;;;;;4996144;28;20403;-67
2021/03/27 05:08:13;;;;;;;3.50;1.97;;;22.20;49.80;;;;;;4996016;28;20441;-67
2021/03/27 05:10:41;;;;;;;2.00;1.80;;;22.20;49.80;;;;;;4994788;28;20412;-67
2021/03/27 05:13:38;;;;;;;2.00;1.70;;;22.20;49.90;;;;;;4995468;28;20928;-67
2021/03/27 05:16:13;;;;;;;3.97;2.20;;;22.30;49.90;;;;;;5010062;28;20575;-68
2021/03/27 05:19:07;;;;;;;1.80;1.50;;;22.20;49.90;;;;;;4994297;28;20458;-68
2021/03/27 05:21:38;;;;;;;1.70;1.60;;;22.20;49.80;;;;;;4995081;28;20404;-68
2021/03/27 05:24:43;;;;;;;2.33;1.80;;;22.20;49.80;;;;;;4994454;28;20443;-67
2021/03/27 05:27:34;;;;;;;2.27;1.83;;;22.30;49.90;;;;;;4995790;28;20412;-67
2021/03/27 05:30:21;;;;;;;1.73;1.57;;;22.20;50.30;;;;;;4995497;28;20428;-67
2021/03/27 05:33:08;;;;;;;1.83;1.73;;;22.20;49.80;;;;;;4995749;28;20459;-67
2021/03/27 05:35:53;;;;;;;2.27;1.70;;;22.30;49.90;;;;;;4995953;28;20492;-67
2021/03/27 05:38:31;;;;;;;1.90;1.50;;;22.30;49.90;;;;;;4995767;28;20527;-67
2021/03/27 05:41:34;;;;;;;1.80;1.60;;;22.30;49.80;;;;;;4994640;28;20762;-65
2021/03/27 05:44:11;;;;;;;1.87;1.70;;;22.30;49.80;;;;;;4995450;28;20434;-67
2021/03/27 05:46:58;;;;;;;1.70;1.60;;;22.30;49.80;;;;;;4995043;28;20431;-67
2021/03/27 05:49:47;;;;;;;2.00;1.80;;;22.30;49.80;;;;;;4994051;28;20452;-66
2021/03/27 05:52:27;;;;;;;1.83;1.67;;;22.30;49.80;;;;;;4994857;28;20518;-67
2021/03/27 05:55:11;;;;;;;2.10;1.50;;;22.30;49.80;;;;;;4995819;28;20404;-67
2021/03/27 05:58:01;;;;;;;1.70;1.60;;;22.30;49.80;;;;;;4995454;28;20396;-67
2021/03/27 06:00:49;;;;;;;2.07;1.73;;;22.30;49.80;;;;;;4995562;28;20389;-67
2021/03/27 06:03:52;;;;;;;1.90;1.80;;;22.30;49.80;;;;;;4993843;28;20527;-67
2021/03/27 06:06:43;;;;;;;1.83;1.70;;;22.40;49.80;;;;;;4995044;28;20475;-67
2021/03/27 06:09:22;;;;;;;2.03;1.80;;;22.40;49.80;;;;;;4994819;28;20950;-67
2021/03/27 06:12:06;;;;;;;2.33;2.07;;;22.30;49.80;;;;;;4993633;28;20982;-67
2021/03/27 06:14:52;;;;;;;2.50;1.63;;;22.40;49.80;;;;;;4994959;28;20884;-67
2021/03/27 06:17:33;;;;;;;3.03;2.40;;;22.40;49.80;;;;;;4993650;28;20911;-66
2021/03/27 06:20:17;;;;;;;2.60;1.70;;;22.40;49.80;;;;;;4995260;28;20447;-67
2021/03/27 06:23:04;;;;;;;2.60;1.67;;;22.40;49.80;;;;;;4993046;28;20543;-67
2021/03/27 06:25:35;;;;;;;2.30;1.63;;;22.40;49.80;;;;;;4994832;28;20495;-66
2021/03/27 06:28:35;;;;;;;1.70;1.60;;;22.40;49.80;;;;;;4994569;28;20431;-67
2021/03/27 06:31:23;;;;;;;1.80;1.63;;;22.40;49.80;;;;;;4993073;28;20485;-67
2021/03/27 06:34:26;;;;;;;1.97;1.60;;;22.40;49.80;;;;;;4994519;28;20923;-67
2021/03/27 06:37:22;;;;;;;2.00;1.70;;;22.40;49.80;;;;;;4994508;28;20420;-67
2021/03/27 06:40:09;;;;;;;2.00;1.60;;;22.40;49.80;;;;;;4992767;28;20849;-66
2021/03/27 06:43:06;;;;;;;3.63;1.57;;;22.40;49.80;;;;;;4994375;28;20424;-67
2021/03/27 06:45:59;;;;;;;2.67;2.00;;;22.40;49.80;;;;;;4994329;28;20499;-66
2021/03/27 06:49:18;;;;;;;1.90;1.60;;;22.40;50.40;;;;;;4994049;28;20491;-67
2021/03/27 06:51:57;;;;;;;2.30;1.97;;;22.40;49.80;;;;;;4972844;28;20773;-67
2021/03/27 06:54:47;;;;;;;2.00;1.77;;;22.40;49.90;;;;;;4994199;28;20907;-65
2021/03/27 06:57:32;;;;;;;2.10;1.90;;;22.40;50.40;;;;;;4992661;28;20428;-67
2021/03/27 07:00:36;;;;;;;2.00;1.63;;;22.40;49.80;;;;;;4994397;28;20455;-67
2021/03/27 07:03:39;;;;;;;1.60;1.40;;;22.40;49.80;;;;;;4994060;28;20427;-67
2021/03/27 07:06:19;;;;;;;2.70;1.97;;;22.40;49.80;;;;;;4994035;28;20403;-67
2021/03/27 07:09:04;;;;;;;2.70;2.17;;;22.40;49.90;;;;;;4993956;28;20385;-67
2021/03/27 07:11:48;;;;;;;3.17;1.90;;;22.40;49.90;;;;;;4994021;28;20424;-67
2021/03/27 07:14:33;;;;;;;1.50;1.40;;;22.40;49.80;;;;;;4993703;28;20943;-66
2021/03/27 07:17:27;;;;;;;1.97;1.67;;;22.40;49.80;;;;;;4994178;28;20392;-67
2021/03/27 07:20:18;;;;;;;1.60;1.50;;;22.40;49.80;;;;;;4993376;28;20920;-66
2021/03/27 07:23:31;;;;;;;1.70;1.60;;;22.40;49.80;;;;;;4993750;28;20424;-67
2021/03/27 07:26:39;;;;;;;1.80;1.60;;;22.40;49.80;;;;;;4993990;28;20408;-67
2021/03/27 07:29:32;;;;;;;2.53;1.80;;;22.40;49.80;;;;;;4993207;28;20531;-67
2021/03/27 07:32:27;;;;;;;2.20;1.90;;;22.40;49.80;;;;;;4992772;28;20412;-67
2021/03/27 07:35:05;;;;;;;2.23;1.90;;;22.40;49.80;;;;;;4993587;28;20412;-67
2021/03/27 07:37:44;;;;;;;2.20;2.00;;;22.40;49.80;;;;;;4993471;28;20415;-67
2021/03/27 07:40:39;;;;;;;1.80;1.63;;;22.40;49.80;;;;;;4992344;28;20419;-67
2021/03/27 07:43:25;;;;;;;1.83;1.67;;;22.40;49.80;;;;;;4993592;28;20451;-67
2021/03/27 07:46:21;;;;;;;1.40;1.30;;;22.40;49.80;;;;;;4993625;28;20393;-66
2021/03/27 07:49:25;;;;;;;2.37;1.60;;;22.40;49.70;;;;;;4974276;28;20798;-67
2021/03/27 07:52:01;;;;;;;2.00;1.80;;;22.40;49.70;;;;;;4974137;28;20818;-67
2021/03/27 07:54:56;;;;;;;2.13;1.60;;;22.40;49.80;;;;;;4974153;28;20405;-67
2021/03/27 07:58:05;;;;;;;2.63;1.80;;;22.50;49.80;;;;;;4974081;28;20880;-67
2021/03/27 08:00:36;;;;;;;1.90;1.60;;;22.40;49.70;;;;;;4974390;28;20423;-67
2021/03/27 08:03:44;;;;;;;1.80;1.60;;;22.40;49.70;;;;;;4973580;28;20437;-67
2021/03/27 08:06:36;;;;;;;2.33;1.60;;;22.50;49.80;;;;;;4997213;28;20428;-65
2021/03/27 08:09:20;;;;;;;2.10;1.60;;;22.50;49.80;;;;;;4997536;28;20887;-67
2021/03/27 08:12:01;;;;;;;1.97;1.53;;;22.40;49.70;;;;;;4995644;28;20412;-67
2021/03/27 08:14:44;;;;;;;1.83;1.57;;;22.50;49.90;;;;;;4996990;28;20412;-67
2021/03/27 08:17:35;;;;;;;2.40;2.00;;;22.50;49.80;;;;;;4997061;28;20408;-67
2021/03/27 08:20:39;;;;;;;1.60;1.50;;;22.50;49.80;;;;;;4997312;28;20396;-67
2021/03/27 08:23:32;;;;;;;1.53;1.30;;;22.50;49.80;;;;;;4996643;28;20814;-67
2021/03/27 08:26:35;;;;;;;3.77;1.60;;;22.50;49.80;;;;;;4996608;28;20418;-67
2021/03/27 08:29:41;;;;;;;1.83;1.70;;;22.50;49.80;;;;;;4997177;28;20393;-66
2021/03/27 08:32:36;;;;;;;2.20;1.53;;;22.50;49.80;;;;;;4997002;28;20404;-67
2021/03/27 08:35:24;;;;;;;2.20;1.57;;;22.50;49.90;;;;;;4996790;28;20388;-66
2021/03/27 08:37:58;;;;;;;1.60;1.50;;;22.50;49.90;;;;;;4995375;28;20555;-66
2021/03/27 08:40:47;;;;;;;1.57;1.20;;;22.50;49.90;;;;;;4996630;28;20491;-67
2021/03/27 08:43:21;;;;;;;1.70;1.47;;;22.50;49.90;;;;;;4996588;28;21102;-67
2021/03/27 08:46:17;;;;;;;2.63;1.40;;;22.50;49.80;;;;;;4996902;28;20403;-67
2021/03/27 08:49:14;;;;;;;1.67;1.47;;;22.50;49.80;;;;;;4996694;28;20842;-67
2021/03/27 08:51:45;;;;;;;1.97;1.77;;;22.50;49.80;;;;;;4996413;28;20886;-66
2021/03/27 08:54:16;;;;;;;1.93;1.40;;;22.50;49.80;;;;;;4996338;28;20975;-67
2021/03/27 08:56:56;;;;;;;1.60;1.40;;;22.50;49.80;;;;;;4994984;28;20467;-67
2021/03/27 09:00:07;;;;;;;1.77;1.47;;;22.50;49.80;;;;;;4996072;28;20458;-67
2021/03/27 09:02:50;;;;;;;1.67;1.10;;;22.50;49.80;;;;;;4988017;28;20491;-67
2021/03/27 09:05:33;;;;;;;2.50;1.80;;;22.50;49.90;;;;;;4996481;28;20476;-67
2021/03/27 09:08:21;;;;;;;1.93;1.37;;;22.50;49.80;;;;;;4994609;28;20934;-68
2021/03/27 09:11:04;;;;;;;1.43;1.30;;;22.50;49.90;;;;;;4996246;28;20922;-67
2021/03/27 09:14:01;;;;;;;1.73;1.10;;;22.60;49.90;;;;;;4996010;28;20451;-66
2021/03/27 09:17:02;;;;;;;1.80;1.30;;;22.60;50.00;;;;;;4995718;28;20427;-68
2021/03/27 09:19:43;;;;;;;1.87;1.17;;;22.60;50.00;;;;;;4996210;28;20448;-67
2021/03/27 09:22:27;;;;;;;2.10;1.60;;;22.60;50.00;;;;;;4995901;28;20435;-68
2021/03/27 09:24:56;;;;;;;1.80;1.33;;;22.60;50.00;;;;;;4994611;28;20539;-68
2021/03/27 09:27:46;;;;;;;3.57;1.40;;;22.60;50.00;;;;;;4996000;28;20448;-68
2021/03/27 09:30:23;;;;;;;3.00;1.67;;;22.60;49.90;;;;;;4995636;28;20423;-67
2021/03/27 09:33:05;;;;;;;3.27;1.70;;;22.70;50.00;;;;;;4994000;28;20456;-68
2021/03/27 09:35:41;;;;;;;4.47;1.47;;;22.70;50.00;;;;;;4995699;28;20468;-67
2021/03/27 09:38:22;;;;;;;1.90;1.60;;;22.70;50.00;;;;;;4995518;28;20490;-67
2021/03/27 09:40:50;;;;;;;1.90;1.50;;;22.70;50.00;;;;;;4995617;28;20436;-67
2021/03/27 09:44:06;;;;;;;3.63;1.20;;;22.70;50.00;;;;;;4995414;28;20463;-67
2021/03/27 09:47:03;;;;;;;2.73;1.80;;;22.70;49.90;;;;;;4983689;28;20919;-67
2021/03/27 09:49:37;;;;;;;1.40;1.13;;;22.70;50.00;;;;;;4995049;28;20448;-68
2021/03/27 09:52:24;;;;;;;6.70;1.83;;;22.70;50.00;;;;;;4995571;28;20404;-67
2021/03/27 09:55:02;;;;;;;1.90;1.60;;;22.80;50.00;;;;;;4993965;28;20507;-68
2021/03/27 09:57:35;;;;;;;2.80;1.40;;;22.80;50.60;;;;;;4995215;28;20408;-67
2021/03/27 10:00:12;;;;;;;1.97;1.47;;;22.70;49.90;;;;;;4995203;28;20540;-68
2021/03/27 10:03:01;;;;;;;2.30;1.50;;;22.80;50.00;;;;;;4995076;28;20955;-67
2021/03/27 10:05:47;;;;;;;1.20;1.00;;;22.80;50.00;;;;;;4995387;28;20457;-67
2021/03/27 10:08:19;;;;;;;1.60;1.30;;;22.80;50.00;;;;;;4994649;28;20416;-67
2021/03/27 10:11:04;;;;;;;1.20;1.10;;;22.70;49.90;;;;;;4995031;28;20446;-67
2021/03/27 10:13:54;;;;;;;1.73;1.33;;;22.80;49.90;;;;;;4994876;28;21038;-67
2021/03/27 10:16:44;;;;;;;2.20;1.30;;;22.80;50.00;;;;;;4995203;28;20415;-67
2021/03/27 10:19:19;;;;;;;1.73;1.47;;;22.80;50.00;;;;;;4994858;28;20483;-66
2021/03/27 10:22:00;;;;;;;1.80;1.30;;;22.70;50.00;;;;;;4994013;28;20880;-66
2021/03/27 10:25:08;;;;;;;3.97;1.63;;;22.70;49.90;;;;;;4994136;28;20424;-66
2021/03/27 10:27:47;;;;;;;3.53;1.20;;;22.80;50.00;;;;;;4994035;28;20921;-67
2021/03/27 10:30:19;;;;;;;1.57;1.10;;;22.80;50.00;;;;;;4992519;28;20420;-67
2021/03/27 10:33:09;;;;;;;4.03;1.13;;;22.80;50.10;;;;;;4994311;28;20432;-67
2021/03/27 10:35:46;;;;;;;3.33;1.43;;;22.80;50.00;;;;;;4994381;28;20424;-67
2021/03/27 10:38:46;;;;;;;2.13;1.40;;;22.80;50.00;;;;;;4994309;28;20455;-67
2021/03/27 10:41:42;;;;;;;2.90;1.23;;;22.80;50.00;;;;;;4989201;28;20966;-66
2021/03/27 10:44:27;;;;;;;2.33;1.37;;;22.80;50.00;;;;;;4994077;28;20428;-67
2021/03/27 10:47:05;;;;;;;2.10;1.33;;;22.80;50.10;;;;;;4994253;28;20935;-67
2021/03/27 10:49:40;;;;;;;1.73;1.10;;;22.80;50.10;;;;;;4994055;28;20454;-67
2021/03/27 10:52:33;;;;;;;3.80;1.60;;;22.80;50.10;;;;;;4994207;28;20768;-67
2021/03/27 10:55:34;;;;;;;1.57;1.13;;;22.80;50.10;;;;;;4994395;28;20400;-67
2021/03/27 10:58:18;;;;;;;3.50;1.07;;;22.80;50.10;;;;;;4994300;28;20993;-66
2021/03/27 11:01:15;;;;;;;1.80;1.17;;;22.80;50.10;;;;;;4992897;28;20412;-67
2021/03/27 11:03:58;;;;;;;1.47;1.37;;;22.80;50.00;;;;;;4993057;28;20443;-67
2021/03/27 11:06:39;;;;;;;2.20;1.30;;;22.80;50.10;;;;;;4994149;28;20806;-66
2021/03/27 11:09:18;;;;;;;1.57;1.20;;;22.80;50.20;;;;;;4994054;28;20397;-67
2021/03/27 11:12:05;;;;;;;2.73;1.40;;;22.80;50.10;;;;;;4994001;28;20396;-67
2021/03/27 11:14:39;;;;;;;1.87;0.90;;;22.80;50.10;;;;;;4992380;28;20420;-68
2021/03/27 11:17:25;;;;;;;2.47;1.27;;;22.80;50.00;;;;;;4993749;28;20514;-67
2021/03/27 11:20:13;;;;;;;1.33;1.20;;;22.80;50.00;;;;;;4982851;28;21037;-68
2021/03/27 11:23:21;;;;;;;1.90;1.27;;;22.90;50.60;;;;;;4992531;28;20445;-67
2021/03/27 11:26:26;;;;;;;2.13;1.30;;;22.90;50.00;;;;;;4995224;28;20846;-67
2021/03/27 11:28:59;;;;;;;1.30;1.13;;;22.80;50.00;;;;;;4995048;28;20413;-67
2021/03/27 11:31:31;;;;;;;1.80;1.40;;;22.80;50.00;;;;;;4995159;28;20876;-66
2021/03/27 11:34:41;;;;;;;3.00;2.27;;;22.80;49.90;;;;;;4995595;28;20958;-67
2021/03/27 11:37:16;;;;;;;1.23;1.00;;;22.90;50.00;;;;;;4986983;28;20419;-67
2021/03/27 11:39:45;;;;;;;1.50;1.30;;;22.80;50.00;;;;;;4994310;28;20470;-67
2021/03/27 11:42:40;;;;;;;1.97;1.13;;;22.80;49.90;;;;;;4992650;28;20578;-67
2021/03/27 11:45:14;;;;;;;2.40;1.70;;;22.90;50.00;;;;;;4993994;28;20484;-67
2021/03/27 11:48:05;;;;;;;2.57;1.33;;;22.80;49.90;;;;;;4994742;28;20440;-66
2021/03/27 11:50:42;;;;;;;1.80;1.10;;;22.90;49.90;;;;;;5010267;28;20420;-68
2021/03/27 11:53:44;;;;;;;1.63;1.00;;;22.90;50.00;;;;;;4993505;28;20868;-67
2021/03/27 11:56:37;;;;;;;1.70;1.30;;;22.90;50.00;;;;;;4985314;28;20927;-67
2021/03/27 12:02:28;;;;;;;2.03;1.20;;;22.80;49.90;;;;;;4993327;28;20398;-67
2021/03/27 12:05:20;;;;;;;1.80;1.37;;;22.80;49.90;;;;;;4993532;28;20408;-68
2021/03/27 12:08:15;;;;;;;2.17;1.30;;;22.80;49.90;;;;;;4993505;28;20804;-66
2021/03/27 12:11:01;;;;;;;1.67;1.27;;;22.80;49.90;;;;;;4993477;28;20396;-68
2021/03/27 12:13:36;;;;;;;1.47;1.23;;;22.80;49.90;;;;;;4993748;28;20947;-67
2021/03/27 12:16:36;;;;;;;1.70;1.30;;;22.80;49.90;;;;;;4992641;28;20450;-67
2021/03/27 12:19:35;;;;;;;1.93;0.90;;;22.80;49.90;;;;;;4974974;28;20471;-67
2021/03/27 12:22:16;;;;;;;1.40;1.00;;;22.80;49.90;;;;;;4982554;28;20482;-67
2021/03/27 12:25:21;;;;;;;2.90;1.10;;;22.80;50.00;;;;;;4974001;28;20449;-68
2021/03/27 12:28:05;;;;;;;1.30;1.20;;;22.80;49.90;;;;;;4973574;28;20931;-67
2021/03/27 12:30:45;;;;;;;2.67;1.30;;;22.80;49.90;;;;;;4974794;28;20401;-67
2021/03/27 12:33:31;;;;;;;1.53;1.17;;;22.80;49.90;;;;;;4975072;28;20956;-67
2021/03/27 12:36:12;;;;;;;1.73;1.27;;;22.80;50.00;;;;;;4974313;28;20424;-69
2021/03/27 12:38:56;;;;;;;1.30;1.00;;;22.80;50.00;;;;;;4993148;28;20447;-67
2021/03/27 12:41:45;;;;;;;1.70;1.00;;;22.80;49.90;;;;;;4993102;28;20443;-67
2021/03/27 12:44:24;;;;;;;1.30;0.93;;;22.80;49.90;;;;;;4993384;28;20435;-67
2021/03/27 12:47:13;;;;;;;1.70;1.30;;;22.80;49.90;;;;;;4991971;28;20990;-66
2021/03/27 12:50:21;;;;;;;1.77;1.10;;;22.80;49.90;;;;;;4993790;28;20432;-68
2021/03/27 12:53:05;;;;;;;1.60;1.17;;;22.80;49.90;;;;;;4996678;28;20431;-67
2021/03/27 12:55:36;;;;;;;1.23;1.03;;;22.80;50.00;;;;;;4977024;28;20409;-67
2021/03/27 12:58:29;;;;;;;1.30;1.00;;;22.80;49.90;;;;;;4976936;28;20456;-67
2021/03/27 13:01:23;;;;;;;1.60;1.33;;;22.80;49.90;;;;;;4984119;28;20416;-67
2021/03/27 13:04:19;;;;;;;1.63;1.20;;;22.80;49.90;;;;;;4996793;28;20426;-67
2021/03/27 13:07:01;;;;;;;1.40;1.10;;;22.80;50.00;;;;;;4996800;28;20416;-67
2021/03/27 13:09:45;;;;;;;2.03;1.00;;;22.80;50.00;;;;;;4996818;28;20496;-67
2021/03/27 13:12:20;;;;;;;1.17;0.97;;;22.80;50.00;;;;;;4996371;28;20805;-68
2021/03/27 13:15:11;;;;;;;1.57;1.10;;;22.80;50.00;;;;;;4996098;28;20400;-67
2021/03/27 13:18:04;;;;;;;2.37;1.10;;;22.80;50.00;;;;;;4995969;28;20949;-67
2021/03/27 13:20:34;;;;;;;1.60;1.00;;;22.80;50.00;;;;;;4995970;28;20911;-67
2021/03/27 13:23:06;;;;;;;1.37;1.27;;;22.80;50.00;;;;;;4996018;28;20523;-68
2021/03/27 13:25:58;;;;;;;1.30;1.03;;;22.80;50.00;;;;;;4996247;28;20400;-67
2021/03/27 13:28:33;;;;;;;2.13;1.13;;;22.80;50.00;;;;;;4995495;28;20428;-68
2021/03/27 13:31:07;;;;;;;2.07;1.20;;;22.80;50.00;;;;;;4996244;28;20501;-66
2021/03/27 13:33:40;;;;;;;1.87;1.00;;;22.80;50.00;;;;;;4995644;28;20424;-67
2021/03/27 13:36:28;;;;;;;1.57;1.20;;;22.80;50.00;;;;;;4996019;28;20454;-67
2021/03/27 13:39:28;;;;;;;1.13;0.80;;;22.80;49.90;;;;;;4996062;28;20830;-67
2021/03/27 13:42:18;;;;;;;1.80;1.20;;;22.80;49.90;;;;;;4995423;28;20416;-68
2021/03/27 13:45:08;;;;;;;1.80;1.00;;;22.80;50.00;;;;;;4995173;28;20421;-67
2021/03/27 13:47:52;;;;;;;1.20;1.00;;;22.80;49.90;;;;;;4992303;28;20424;-66
2021/03/27 13:50:20;;;;;;;1.97;1.07;;;22.80;49.90;;;;;;4995356;28;20435;-67
2021/03/27 13:53:32;;;;;;;2.20;1.00;;;22.80;49.90;;;;;;4995298;28;20526;-66
2021/03/27 13:56:03;;;;;;;1.63;1.53;;;22.80;49.80;;;;;;4988973;28;20427;-67
2021/03/27 13:58:59;;;;;;;0.97;0.77;;;22.80;49.90;;;;;;4995112;28;20515;-67
2021/03/27 14:01:33;;;;;;;1.57;0.90;;;22.80;49.80;;;;;;4993959;28;20421;-68
2021/03/27 14:04:16;;;;;;;1.00;0.80;;;22.80;49.80;;;;;;4995125;28;20428;-67
2021/03/27 14:07:02;;;;;;;1.40;1.10;;;22.80;49.70;;;;;;4995365;28;20424;-67
2021/03/27 14:09:34;;;;;;;1.73;1.10;;;22.80;49.70;;;;;;4994981;28;20482;-67
2021/03/27 14:12:16;;;;;;;1.40;1.00;;;22.80;49.60;;;;;;4994988;28;20466;-67
2021/03/27 14:15:03;;;;;;;1.40;1.10;;;22.80;49.60;;;;;;4994941;28;20798;-67
2021/03/27 14:17:54;;;;;;;1.30;0.87;;;22.80;49.60;;;;;;4994887;28;20423;-67
2021/03/27 14:20:42;;;;;;;1.40;1.00;;;22.80;49.60;;;;;;4994316;28;20869;-67
2021/03/27 14:23:29;;;;;;;1.70;1.20;;;22.80;49.60;;;;;;4993850;28;20452;-67